Terminal Aerodrome Forecast
Issued by NWS

Home | Current Version | Previous Version | Text Only | Print | Product List | Glossary On
Versions: 1 2 3 4 5 6 7 8 9 10 11 12
000
FTUS42 TJSJ 280547
TAFKPK
TAF
TKPK 280547Z 2806/2906 08015G25KT P6SM -SHRA SCT020 BKN080
     FM281500 08015KT P6SM VCSH SCT020 SCT050
     FM282300 06012KT P6SM SCT018
      AMD NOT SKED=

USA.gov is the U.S. government's official web portal to all federal, state and local government web resources and services.